createdAt,value
2017-04-04T00:01:33.457Z,14.56
2017-04-04T00:03:57.071Z,14.49
2017-04-04T00:06:20.441Z,14.53
2017-04-04T00:08:43.870Z,14.44
2017-04-04T00:11:07.583Z,14.48
2017-04-04T00:13:31.117Z,14.16
2017-04-04T00:15:54.496Z,13.98
2017-04-04T00:18:09.657Z,13.76
2017-04-04T00:20:33.166Z,13.79
2017-04-04T00:22:56.578Z,13.76
2017-04-04T00:25:20.010Z,13.73
2017-04-04T00:27:43.457Z,13.7
2017-04-04T00:30:06.880Z,13.68
2017-04-04T00:32:30.350Z,13.95
2017-04-04T00:34:53.818Z,13.68
2017-04-04T00:37:17.314Z,13.79
2017-04-04T00:39:40.767Z,13.82
2017-04-04T00:41:55.870Z,13.68
2017-04-04T00:44:19.551Z,13.7
2017-04-04T00:46:42.776Z,13.52
2017-04-04T00:49:06.437Z,13.49
2017-04-04T00:51:29.705Z,13.49
2017-04-04T00:53:53.163Z,13.68
2017-04-04T00:56:17.804Z,13.49
2017-04-04T00:58:41.248Z,13.2
2017-04-04T01:01:04.834Z,13.42
2017-04-04T01:03:28.176Z,13.36
2017-04-04T01:05:51.639Z,13.36
2017-04-04T01:08:15.129Z,13.27
2017-04-04T01:10:38.545Z,13.33
2017-04-04T01:13:02.029Z,13.2
2017-04-04T01:15:25.493Z,13.17
2017-04-04T01:17:48.983Z,13.21
2017-04-04T01:20:12.441Z,13.23
2017-04-04T01:22:35.904Z,13.28
2017-04-04T01:24:59.286Z,13.17
2017-04-04T01:27:22.744Z,13.11
2017-04-04T01:29:46.332Z,12.8
2017-04-04T01:32:09.579Z,12.62
2017-04-04T01:34:24.719Z,12.69
2017-04-04T01:36:48.159Z,12.73
2017-04-04T01:39:11.699Z,12.72
2017-04-04T01:41:34.938Z,12.68
2017-04-04T01:43:58.324Z,12.65
2017-04-04T01:46:21.667Z,12.44
2017-04-04T01:48:45.029Z,12.47
2017-04-04T01:51:08.509Z,12.21
2017-04-04T01:53:31.959Z,12.66
2017-04-04T01:55:55.341Z,12.51
2017-04-04T01:58:18.891Z,12.58
2017-04-04T02:00:42.449Z,12.72
2017-04-04T02:03:05.802Z,12.57
2017-04-04T02:05:29.320Z,12.45
2017-04-04T02:07:52.780Z,12.25
2017-04-04T02:10:16.243Z,12.11
2017-04-04T02:12:39.747Z,12.23
2017-04-04T02:15:03.114Z,12.23
2017-04-04T02:17:26.338Z,11.95
2017-04-04T02:19:49.720Z,12.08
2017-04-04T02:22:13.079Z,12.08
2017-04-04T02:24:36.450Z,11.86
2017-04-04T02:26:59.785Z,11.63
2017-04-04T02:29:23.175Z,11.78
2017-04-04T02:31:46.633Z,11.68
2017-04-04T02:34:09.899Z,11.8
2017-04-04T02:36:33.375Z,11.96
2017-04-04T02:38:56.746Z,11.65
2017-04-04T02:41:20.162Z,11.95
2017-04-04T02:43:44.487Z,11.81
2017-04-04T02:45:59.465Z,11.65
2017-04-04T02:48:22.831Z,11.43
2017-04-04T02:50:46.185Z,11.33
2017-04-04T02:53:09.569Z,11.23
2017-04-04T02:55:32.938Z,11.18
2017-04-04T02:57:56.219Z,11.05
2017-04-04T03:00:19.592Z,11.08
2017-04-04T03:02:43.307Z,10.8
2017-04-04T03:05:06.589Z,10.87
2017-04-04T03:07:29.836Z,10.87
2017-04-04T03:09:53.217Z,11.1
2017-04-04T03:12:16.512Z,11.13
2017-04-04T03:14:39.727Z,11.04
2017-04-04T03:17:02.994Z,11.25
2017-04-04T03:19:27.390Z,11.37
2017-04-04T03:21:03.751Z,11.25
2017-04-04T03:23:27.634Z,11.35
2017-04-04T03:25:51.921Z,10.94
2017-04-04T03:28:15.278Z,11.19
2017-04-04T03:30:38.524Z,11.1
2017-04-04T03:33:02.032Z,11.02
2017-04-04T03:35:25.535Z,11.12
2017-04-04T03:37:49.033Z,11.23
2017-04-04T03:40:12.190Z,11.18
2017-04-04T03:42:35.606Z,11.23
2017-04-04T03:44:58.849Z,11.02
2017-04-04T03:47:22.075Z,11.08
2017-04-04T03:49:45.355Z,11.12
2017-04-04T03:52:08.616Z,11.04
2017-04-04T03:54:32.010Z,10.97
2017-04-04T03:56:55.327Z,10.82
2017-04-04T03:59:18.430Z,10.45
2017-04-04T04:01:41.684Z,10.41
2017-04-04T04:04:05.476Z,10.75
2017-04-04T04:06:28.805Z,10.77
2017-04-04T04:08:52.081Z,10.69
2017-04-04T04:11:15.563Z,10.62
2017-04-04T04:13:38.945Z,10.83
2017-04-04T04:16:02.680Z,10.94
2017-04-04T04:18:26.262Z,10.68
2017-04-04T04:20:49.622Z,11.07
2017-04-04T04:23:12.997Z,10.71
2017-04-04T04:25:36.278Z,10.83
2017-04-04T04:27:59.696Z,10.67
2017-04-04T04:30:23.474Z,10.9
2017-04-04T04:32:46.826Z,10.92
2017-04-04T04:35:17.774Z,11.16
2017-04-04T04:37:41.054Z,11.08
2017-04-04T04:39:56.066Z,11.16
2017-04-04T04:42:19.327Z,11.27
2017-04-04T04:44:42.711Z,11
2017-04-04T04:47:06.904Z,10.87
2017-04-04T04:49:17.204Z,11.05
2017-04-04T04:51:27.440Z,11.23
2017-04-04T04:53:51.073Z,11.31
2017-04-04T04:56:14.155Z,11.33
2017-04-04T04:58:38.341Z,11.34
2017-04-04T05:01:08.564Z,11.35
2017-04-04T05:03:32.181Z,11.43
2017-04-04T05:05:55.836Z,11.33
2017-04-04T05:08:19.298Z,10.94
2017-04-04T05:10:42.881Z,10.86
2017-04-04T05:13:06.298Z,10.95
2017-04-04T05:15:29.985Z,10.9
2017-04-04T05:17:39.597Z,11.15
2017-04-04T05:19:54.528Z,11
2017-04-04T05:22:17.990Z,11.25
2017-04-04T05:24:41.406Z,11.08
2017-04-04T05:27:04.636Z,10.94
2017-04-04T05:29:28.065Z,11.25
2017-04-04T05:31:51.547Z,11.68
2017-04-04T05:34:15.083Z,12.69
2017-04-04T05:36:38.290Z,13.36
2017-04-04T05:39:01.839Z,13.82
2017-04-04T05:40:37.606Z,14.36
2017-04-04T05:43:01.155Z,14.62
2017-04-04T05:45:24.746Z,15.52
2017-04-04T05:47:48.401Z,15.55
2017-04-04T05:50:11.950Z,15.65
2017-04-04T05:52:35.849Z,16.25
2017-04-04T05:54:59.574Z,17.59
2017-04-04T05:57:23.227Z,17.8
2017-04-04T05:59:46.988Z,19.11
2017-04-04T06:02:10.759Z,19.11
2017-04-04T06:04:20.943Z,19.92
2017-04-04T06:06:31.282Z,20.63
2017-04-04T06:08:55.228Z,21.37
2017-04-04T06:11:19.213Z,21.91
2017-04-04T06:13:43.191Z,22
2017-04-04T06:16:08.345Z,21.5
2017-04-04T06:18:32.297Z,22.07
2017-04-04T06:20:56.368Z,21.74
2017-04-04T06:23:20.675Z,21.59
2017-04-04T06:25:44.659Z,22.78
2017-04-04T06:28:08.723Z,23.1
2017-04-04T06:30:32.911Z,22.81
2017-04-04T06:32:57.090Z,23.76
2017-04-04T06:35:21.298Z,25.62
2017-04-04T06:37:45.457Z,24.11
2017-04-04T06:40:09.641Z,21.77
2017-04-04T06:42:33.852Z,20.75
2017-04-04T06:44:58.118Z,20.17
2017-04-04T06:47:22.643Z,19.57
2017-04-04T06:49:46.768Z,19.99
2017-04-04T06:52:10.891Z,20.08
2017-04-04T06:54:34.949Z,20.88
2017-04-04T06:56:59.072Z,24.18
2017-04-04T06:59:00.345Z,24.53
2017-04-04T07:01:07.660Z,26.23
2017-04-04T07:03:31.863Z,26.51
2017-04-04T07:05:56.143Z,28.04
2017-04-04T07:08:20.528Z,29.15
2017-04-04T07:10:45.012Z,31.14
2017-04-04T07:13:09.631Z,30.13
2017-04-04T07:15:34.355Z,28.25
2017-04-04T07:17:58.963Z,29.73
2017-04-04T07:20:23.673Z,29.21
2017-04-04T07:22:48.284Z,31.39
2017-04-04T07:25:13.221Z,32.42
2017-04-04T07:26:31.227Z,34.63
2017-04-04T07:28:56.208Z,34.41
2017-04-04T07:30:58.850Z,35.08
2017-04-04T07:33:24.016Z,36.09
2017-04-04T07:35:49.377Z,36.8
2017-04-04T07:38:14.744Z,35.72
2017-04-04T07:40:40.242Z,38.2
2017-04-04T07:43:05.838Z,38.16
2017-04-04T07:45:31.425Z,37.29
2017-04-04T07:47:34.932Z,38.38
2017-04-04T07:50:00.444Z,34.13
2017-04-04T07:52:26.743Z,33.09
2017-04-04T07:54:52.467Z,32.38
2017-04-04T07:57:18.180Z,30.76
2017-04-04T07:59:43.911Z,29.15
2017-04-04T08:02:09.472Z,28.77
2017-04-04T08:04:35.014Z,29.44
2017-04-04T08:07:00.342Z,28.16
2017-04-04T08:09:10.566Z,28.57
2017-04-04T08:11:35.767Z,28.82
2017-04-04T08:14:00.824Z,29.09
2017-04-04T08:16:25.747Z,27.85
2017-04-04T08:18:50.533Z,25.22
2017-04-04T08:21:06.840Z,24.71
2017-04-04T08:23:31.498Z,24.34
2017-04-04T08:25:47.584Z,24.63
2017-04-04T08:28:12.063Z,25.68
2017-04-04T08:30:36.650Z,25.46
2017-04-04T08:33:01.144Z,24.4
2017-04-04T08:35:25.531Z,25
2017-04-04T08:37:35.479Z,25.59
2017-04-04T08:39:59.997Z,26.83
2017-04-04T08:42:24.452Z,26.04
2017-04-04T08:44:48.843Z,25.56
2017-04-04T08:47:13.368Z,26.55
2017-04-04T08:49:37.684Z,27.11
2017-04-04T08:52:02.241Z,27.85
2017-04-04T08:54:26.612Z,28.35
2017-04-04T08:56:51.172Z,29.16
2017-04-04T08:59:15.753Z,28.57
2017-04-04T09:01:40.286Z,29.05
2017-04-04T09:04:04.884Z,28.47
2017-04-04T09:06:29.506Z,28.41
2017-04-04T09:08:54.115Z,28.33
2017-04-04T09:11:18.821Z,29.1
2017-04-04T09:13:43.339Z,28.74
2017-04-04T09:16:08.141Z,29.5
2017-04-04T09:18:32.743Z,28.83
2017-04-04T09:20:57.414Z,29.62
2017-04-04T09:23:22.180Z,30.06
2017-04-04T09:25:46.847Z,29.89
2017-04-04T09:28:11.647Z,29.87
2017-04-04T09:30:36.148Z,29.69
2017-04-04T09:33:00.828Z,28.72
2017-04-04T09:35:25.517Z,28.8
2017-04-04T09:37:50.270Z,29
2017-04-04T09:40:14.950Z,28.47
2017-04-04T09:42:39.593Z,28.84
2017-04-04T09:45:04.236Z,28.83
2017-04-04T09:47:28.860Z,27.86
2017-04-04T09:49:53.508Z,27.44
2017-04-04T09:52:18.209Z,27.13
2017-04-04T09:54:42.758Z,26.85
2017-04-04T09:57:07.340Z,26.39
2017-04-04T09:59:31.976Z,27.15
2017-04-04T10:01:56.555Z,27.1
2017-04-04T10:04:21.113Z,27.34
2017-04-04T10:06:45.624Z,27.01
2017-04-04T10:09:10.129Z,26.98
2017-04-04T10:11:34.719Z,25.96
2017-04-04T10:13:59.319Z,26.68
2017-04-04T10:16:23.814Z,26.29
2017-04-04T10:18:48.261Z,25.73
2017-04-04T10:21:12.773Z,26.44
2017-04-04T10:23:37.147Z,26.42
2017-04-04T10:26:01.697Z,25.95
2017-04-04T10:28:26.192Z,25.12
2017-04-04T10:30:50.622Z,25.62
2017-04-04T10:33:15.062Z,25.59
2017-04-04T10:35:39.485Z,25.39
2017-04-04T10:38:04.035Z,25.12
2017-04-04T10:40:28.489Z,25.67
2017-04-04T10:42:04.782Z,24.97
2017-04-04T10:44:29.303Z,24.68
2017-04-04T10:46:53.702Z,24.66
2017-04-04T10:49:18.007Z,24.93
2017-04-04T10:51:42.467Z,25.33
2017-04-04T10:54:06.871Z,24.86
2017-04-04T10:56:31.400Z,24.68
2017-04-04T10:58:55.654Z,25.44
2017-04-04T11:01:20.002Z,25.46
2017-04-04T11:03:44.529Z,24.84
2017-04-04T11:06:08.998Z,24.5
2017-04-04T11:08:33.526Z,24.31
2017-04-04T11:10:57.882Z,24.1
2017-04-04T11:13:22.226Z,24.21
2017-04-04T11:15:46.550Z,24.37
2017-04-04T11:18:10.879Z,23.88
2017-04-04T11:20:35.284Z,23.66
2017-04-04T11:22:59.716Z,24.1
2017-04-04T11:25:23.966Z,24.62
2017-04-04T11:26:59.793Z,24.46
2017-04-04T11:29:24.177Z,24.25
2017-04-04T11:31:48.522Z,24.03
2017-04-04T11:34:12.901Z,24.36
2017-04-04T11:36:37.207Z,24.25
2017-04-04T11:39:01.519Z,23.74
2017-04-04T11:41:25.785Z,24.61
2017-04-04T11:43:50.190Z,24.43
2017-04-04T11:46:14.497Z,24.59
2017-04-04T11:47:50.837Z,24
2017-04-04T11:50:06.735Z,23.7
2017-04-04T11:52:31.076Z,23.73
2017-04-04T11:54:55.380Z,23.29
2017-04-04T11:57:19.661Z,23.91
2017-04-04T11:59:43.952Z,23.99
2017-04-04T12:02:00.027Z,24.28
2017-04-04T12:04:24.344Z,23.82
2017-04-04T12:06:48.541Z,23.34
2017-04-04T12:09:12.869Z,23.85
2017-04-04T12:11:37.037Z,23.81
2017-04-04T12:14:01.359Z,24.03
2017-04-04T12:16:25.673Z,23.95
2017-04-04T12:18:49.915Z,24.21
2017-04-04T12:21:14.228Z,23.66
2017-04-04T12:23:38.466Z,23.66
2017-04-04T12:26:02.753Z,24.43
2017-04-04T12:28:26.944Z,24.03
2017-04-04T12:30:51.287Z,23.86
2017-04-04T12:33:15.505Z,23.28
2017-04-04T12:35:39.735Z,23.63
2017-04-04T12:38:04.074Z,23.59
2017-04-04T12:40:28.298Z,23.79
2017-04-04T12:42:52.470Z,23.63
2017-04-04T12:45:16.734Z,23.4
2017-04-04T12:47:41.025Z,23.29
2017-04-04T12:50:05.289Z,23.71
2017-04-04T12:52:29.551Z,23.25
2017-04-04T12:54:53.730Z,23.71
2017-04-04T12:57:17.848Z,24.03
2017-04-04T12:59:42.150Z,23.84
2017-04-04T13:02:06.331Z,23.39
2017-04-04T13:04:30.448Z,22.18
2017-04-04T13:06:54.666Z,22.46
2017-04-04T13:09:18.836Z,22.74
2017-04-04T13:11:43.093Z,22.53
2017-04-04T13:13:58.776Z,22.37
2017-04-04T13:16:22.849Z,22.12
2017-04-04T13:18:47.955Z,22.1
2017-04-04T13:21:12.049Z,22.22
2017-04-04T13:23:36.267Z,22.43
2017-04-04T13:26:00.391Z,23.02
2017-04-04T13:28:24.534Z,23.02
2017-04-04T13:30:48.773Z,23.17
2017-04-04T13:33:12.709Z,22.44
2017-04-04T13:35:36.863Z,21.97
2017-04-04T13:38:01.014Z,22.41
2017-04-04T13:40:25.044Z,22.71
2017-04-04T13:42:49.231Z,22.63
2017-04-04T13:45:13.301Z,22.76
2017-04-04T13:47:37.393Z,23.18
2017-04-04T13:50:01.579Z,23.02
2017-04-04T13:52:25.580Z,22.81
2017-04-04T13:54:49.752Z,22.61
2017-04-04T13:57:13.778Z,22.34
2017-04-04T13:59:37.859Z,22.77
2017-04-04T14:02:01.930Z,22.68
2017-04-04T14:04:26.166Z,22.25
2017-04-04T14:06:50.160Z,22.47
2017-04-04T14:09:14.322Z,22.65
2017-04-04T14:11:38.326Z,22.73
2017-04-04T14:14:02.440Z,22.04
2017-04-04T14:16:26.577Z,22.1
2017-04-04T14:18:50.714Z,22.15
2017-04-04T14:21:14.815Z,22.03
2017-04-04T14:23:38.881Z,22.06
2017-04-04T14:26:02.925Z,22.53
2017-04-04T14:28:26.929Z,22.19
2017-04-04T14:30:51.052Z,22.34
2017-04-04T14:33:15.098Z,22.25
2017-04-04T14:35:39.085Z,22.14
2017-04-04T14:38:03.194Z,22.07
2017-04-04T14:40:27.232Z,21.75
2017-04-04T14:42:51.327Z,21.88
2017-04-04T14:45:15.326Z,22.01
2017-04-04T14:47:39.326Z,21.99
2017-04-04T14:50:03.359Z,21.96
2017-04-04T14:52:27.375Z,21.91
2017-04-04T14:54:51.409Z,21.74
2017-04-04T14:57:15.381Z,21.37
2017-04-04T14:59:39.390Z,21.41
2017-04-04T15:02:03.336Z,21.23
2017-04-04T15:04:27.399Z,21.28
2017-04-04T15:06:51.337Z,21.6
2017-04-04T15:09:15.370Z,20.75
2017-04-04T15:11:39.342Z,20.86
2017-04-04T15:14:03.430Z,20.53
2017-04-04T15:15:39.110Z,20.36
2017-04-04T15:18:03.143Z,20.68
2017-04-04T15:20:18.714Z,20.82
2017-04-04T15:22:42.632Z,20.75
2017-04-04T15:25:06.656Z,20.77
2017-04-04T15:27:30.671Z,21.04
2017-04-04T15:29:54.759Z,20.85
2017-04-04T15:32:18.633Z,20.98
2017-04-04T15:34:42.631Z,21.1
2017-04-04T15:36:52.815Z,21.22
2017-04-04T15:39:08.417Z,21.23
2017-04-04T15:41:32.647Z,21.23
2017-04-04T15:43:57.299Z,21.35
2017-04-04T15:46:21.563Z,21.45
2017-04-04T15:48:47.493Z,21.1
2017-04-04T15:51:11.564Z,21.23
2017-04-04T15:53:35.699Z,21.04
2017-04-04T15:55:51.404Z,21.29
2017-04-04T15:58:15.481Z,21.03
2017-04-04T16:00:17.251Z,20.89
2017-04-04T16:02:41.283Z,21.1
2017-04-04T16:05:05.281Z,20.89
2017-04-04T16:07:29.461Z,20.56
2017-04-04T16:09:53.466Z,20.53
2017-04-04T16:12:17.645Z,20.7
2017-04-04T16:14:41.628Z,20.55
2017-04-04T16:17:05.569Z,20.34
2017-04-04T16:19:29.567Z,20.68
2017-04-04T16:21:53.486Z,19.89
2017-04-04T16:24:17.443Z,19.66
2017-04-04T16:26:41.339Z,19.77
2017-04-04T16:29:05.412Z,19.99
2017-04-04T16:31:29.318Z,19.62
2017-04-04T16:33:53.261Z,19.81
2017-04-04T16:36:18.215Z,20.03
2017-04-04T16:38:42.120Z,19.99
2017-04-04T16:41:06.043Z,19.7
2017-04-04T16:43:30.137Z,19.41
2017-04-04T16:45:32.889Z,19.12
2017-04-04T16:47:57.436Z,19.34
2017-04-04T16:50:21.838Z,19.27
2017-04-04T16:52:45.638Z,19.7
2017-04-04T16:55:09.523Z,19.3
2017-04-04T16:57:33.395Z,19
2017-04-04T16:59:57.301Z,19.27
2017-04-04T17:02:21.210Z,19.64
2017-04-04T17:04:45.081Z,19.7
2017-04-04T17:07:08.984Z,19.32
2017-04-04T17:09:32.814Z,19.37
2017-04-04T17:11:56.735Z,19.45
2017-04-04T17:14:20.646Z,19.16
2017-04-04T17:16:46.446Z,19.2
2017-04-04T17:19:10.433Z,19.22
2017-04-04T17:21:34.801Z,19.22
2017-04-04T17:23:59.734Z,19.24
2017-04-04T17:26:23.600Z,19.11
2017-04-04T17:28:49.223Z,19.17
2017-04-04T17:31:13.157Z,19.2
2017-04-04T17:33:37.023Z,19.2
2017-04-04T17:36:00.799Z,19.2
2017-04-04T17:38:24.651Z,19.24
2017-04-04T17:40:48.511Z,19.29
2017-04-04T17:43:12.335Z,19.11
2017-04-04T17:45:36.245Z,19.27
2017-04-04T17:48:00.014Z,19.07
2017-04-04T17:50:23.819Z,18.88
2017-04-04T17:52:47.632Z,18.91
2017-04-04T17:55:11.418Z,18.83
2017-04-04T17:57:35.195Z,18.76
2017-04-04T17:59:58.998Z,18.88
2017-04-04T18:02:22.841Z,18.74
2017-04-04T18:04:46.679Z,18.78
2017-04-04T18:07:10.483Z,18.68
2017-04-04T18:09:34.255Z,18.68
2017-04-04T18:11:58.048Z,18.78
2017-04-04T18:14:21.818Z,18.55
2017-04-04T18:16:45.549Z,18.58
2017-04-04T18:19:09.317Z,18.53
2017-04-04T18:21:33.024Z,18.37
2017-04-04T18:23:56.786Z,18.42
2017-04-04T18:26:20.505Z,18.42
2017-04-04T18:28:44.229Z,18.41
2017-04-04T18:31:07.982Z,18.43
2017-04-04T18:33:31.733Z,18.36
2017-04-04T18:35:55.464Z,18.42
2017-04-04T18:38:19.218Z,18.37
2017-04-04T18:40:42.903Z,18.31
2017-04-04T18:43:06.692Z,18.41
2017-04-04T18:45:30.422Z,18.33
2017-04-04T18:47:54.987Z,18.27
2017-04-04T18:50:18.770Z,18.27
2017-04-04T18:52:42.498Z,18.34
2017-04-04T18:55:08.658Z,18.37
2017-04-04T18:57:31.722Z,18.19
2017-04-04T18:59:55.401Z,18.11
2017-04-04T19:02:19.109Z,18.06
2017-04-04T19:04:42.841Z,18.18
2017-04-04T19:07:06.558Z,18
2017-04-04T19:09:30.331Z,18.13
2017-04-04T19:11:54.108Z,18.18
2017-04-04T19:14:17.827Z,18.05
2017-04-04T19:16:44.461Z,18.13
2017-04-04T19:19:08.253Z,18.21
2017-04-04T19:21:31.923Z,18.08
2017-04-04T19:23:55.658Z,17.98
2017-04-04T19:26:19.455Z,18.13
2017-04-04T19:28:43.221Z,18.09
2017-04-04T19:31:06.922Z,18.18
2017-04-04T19:33:30.655Z,17.93
2017-04-04T19:35:54.424Z,17.82
2017-04-04T19:38:18.126Z,17.86
2017-04-04T19:39:53.906Z,17.98
2017-04-04T19:42:09.257Z,17.79
2017-04-04T19:44:32.992Z,17.82
2017-04-04T19:46:42.795Z,17.8
2017-04-04T19:49:06.509Z,17.75
2017-04-04T19:51:30.212Z,16.64
2017-04-04T19:53:53.917Z,16.41
2017-04-04T19:56:17.709Z,16.02
2017-04-04T19:58:41.257Z,15.9
2017-04-04T20:01:04.886Z,15.96
2017-04-04T20:03:28.490Z,15.62
2017-04-04T20:05:52.137Z,15.75
2017-04-04T20:08:18.034Z,15.84
2017-04-04T20:10:41.539Z,15.66
2017-04-04T20:13:05.120Z,15.66
2017-04-04T20:15:28.792Z,15.63
2017-04-04T20:17:52.253Z,15.62
2017-04-04T20:20:15.856Z,15.63
2017-04-04T20:22:31.043Z,15.41
2017-04-04T20:24:54.618Z,15.63
2017-04-04T20:27:18.154Z,15.26
2017-04-04T20:29:41.653Z,15.19
2017-04-04T20:32:05.248Z,15.26
2017-04-04T20:34:28.816Z,15.22
2017-04-04T20:36:52.331Z,15.33
2017-04-04T20:39:15.921Z,15.29
2017-04-04T20:41:39.423Z,15.25
2017-04-04T20:43:46.171Z,15.12
2017-04-04T20:46:09.688Z,15.25
2017-04-04T20:48:33.209Z,15.3
2017-04-04T20:50:56.812Z,15.18
2017-04-04T20:52:58.404Z,15.19
2017-04-04T20:55:21.983Z,15.15
2017-04-04T20:57:45.571Z,15.07
2017-04-04T21:00:00.699Z,14.94
2017-04-04T21:02:02.393Z,14.79
2017-04-04T21:04:25.984Z,14.73
2017-04-04T21:06:32.732Z,14.71
2017-04-04T21:08:56.236Z,14.61
2017-04-04T21:11:06.463Z,14.71
2017-04-04T21:13:21.630Z,14.59
2017-04-04T21:15:45.176Z,14.68
2017-04-04T21:18:08.737Z,14.58
2017-04-04T21:20:33.257Z,14.68
2017-04-04T21:22:56.738Z,14.44
2017-04-04T21:25:20.308Z,14.33
2017-04-04T21:27:43.681Z,14.19
2017-04-04T21:30:07.173Z,14.43
2017-04-04T21:32:30.577Z,14.33
2017-04-04T21:34:54.162Z,14.28
2017-04-04T21:37:17.477Z,14.44
2017-04-04T21:39:40.974Z,14.41
2017-04-04T21:42:04.594Z,14.41
2017-04-04T21:44:27.954Z,14.38
2017-04-04T21:46:51.597Z,14.33
2017-04-04T21:49:15.951Z,14.43
2017-04-04T21:51:39.556Z,14.49
2017-04-04T21:54:02.985Z,14.44
2017-04-04T21:56:26.492Z,14.31
2017-04-04T21:58:49.862Z,14.34
2017-04-04T22:01:13.370Z,14.41
2017-04-04T22:03:36.705Z,14.36
2017-04-04T22:06:00.114Z,14.23
2017-04-04T22:07:44.814Z,14.13
2017-04-04T22:10:08.342Z,14.22
2017-04-04T22:12:18.539Z,14.36
2017-04-04T22:14:33.658Z,14.37
2017-04-04T22:16:57.149Z,14.33
2017-04-04T22:19:20.630Z,14.4
2017-04-04T22:21:44.055Z,14.38
2017-04-04T22:24:07.497Z,14.38
2017-04-04T22:25:43.741Z,14.52
2017-04-04T22:28:07.260Z,14.03
2017-04-04T22:30:22.333Z,13.87
2017-04-04T22:32:24.090Z,13.89
2017-04-04T22:34:47.564Z,14.01
2017-04-04T22:37:11.005Z,14.19
2017-04-04T22:39:26.028Z,13.89
2017-04-04T22:41:49.461Z,13.78
2017-04-04T22:44:12.893Z,13.75
2017-04-04T22:46:36.302Z,13.82
2017-04-04T22:48:59.720Z,13.98
2017-04-04T22:51:23.171Z,14.01
2017-04-04T22:53:46.591Z,13.95
2017-04-04T22:56:10.007Z,13.83
2017-04-04T22:58:33.358Z,13.91
2017-04-04T23:00:56.763Z,13.89
2017-04-04T23:03:20.216Z,13.82
2017-04-04T23:05:43.656Z,14.04
2017-04-04T23:08:07.088Z,14.3
2017-04-04T23:10:22.154Z,14.33
2017-04-04T23:12:45.646Z,14.45
2017-04-04T23:15:08.977Z,14.04
2017-04-04T23:17:24.083Z,14
2017-04-04T23:19:47.472Z,14.25
2017-04-04T23:22:10.889Z,14.11
2017-04-04T23:24:34.434Z,14.33
2017-04-04T23:26:57.792Z,14.56
2017-04-04T23:29:21.355Z,14.74
2017-04-04T23:31:44.839Z,14.73
2017-04-04T23:34:08.213Z,14.71
2017-04-04T23:36:31.638Z,14.7
2017-04-04T23:38:55.187Z,14.67
2017-04-04T23:41:18.608Z,14.61
2017-04-04T23:43:41.947Z,14.7
2017-04-04T23:45:43.540Z,14.89
2017-04-04T23:48:07.010Z,14.56
2017-04-04T23:50:30.540Z,14.45
2017-04-04T23:52:53.905Z,14.48
2017-04-04T23:55:17.247Z,14.48
2017-04-04T23:57:40.761Z,14.58
